Nearby METAR Reports

 

KLBE - Latrobe/Westmorl, Pennsylvania, USA
Distance from station: SE 16mi, 26km
Updated: Tue, 04-Aug-2015 2:45pm EDT
Partly cloudy
Partly cloudy
 Wind from WSW
Wind: WSW 12 mph , 19 km/h, Gust: 17 mph , 28 km/h
Temperature: 79°F , 26°C
Dew Point: 55°F , 13°C
Humidity: 45%
Barometer: 29.98 inHg , 1015.2 hPa
Clouds: Partly cloudy
Visibility: 20 miles , 32 km
Cloud details: Partly cloudy 7000 ft
2015/08/04 18:45 KLBE 041845Z 25010G15KT 20SM SCT070 26/13 A2998
KAGC - Pittsburgh/Alleg, Pennsylvania, USA
Distance from station: WSW 18mi, 30km
Updated: Tue, 04-Aug-2015 2:53pm EDT
Few Clouds
Few Clouds
 Wind from SSW
Wind: SSW 12 mph , 19 km/h
Temperature: 81°F , 27°C
Dew Point: 50°F , 10°C
Humidity: 34%
Barometer: 29.97 inHg , 1014.9 hPa
Clouds: Few Clouds
Visibility: 10 miles , 16 km
Cloud details: Few Clouds 5500 ft
2015/08/04 18:53 KAGC 041853Z 21010KT 10SM FEW055 27/10 A2997 RMK AO2 SLP144 T02670100
 
KBTP - Butler Co., Pennsylvania, USA
Distance from station: NW 29mi, 47km
Updated: Tue, 04-Aug-2015 3:35pm EDT
Few Clouds
Few Clouds
 Wind from WSW
Wind: WSW 9 mph , 15 km/h
Temperature: 81°F , 27°C
Dew Point: 54°F , 12°C
Humidity: 39%
Barometer: 29.98 inHg , 1015.2 hPa
Clouds: Few Clouds
Visibility: 10 miles , 16 km
Cloud details: Few Clouds 6500 ft
2015/08/04 19:35 KBTP 041935Z AUTO 24008KT 10SM FEW065 27/12 A2998 RMK AO1
KIDI - Indiana/Stewart, Pennsylvania, USA
Distance from station: ENE 29mi, 47km
Updated: Tue, 04-Aug-2015 3:35pm EDT
Partly cloudy
Partly cloudy
 Wind from NW
Wind: NW 10 mph , 17 km/h, Gust: 16 mph , 26 km/h
Temperature: 79°F , 26°C
Dew Point: 54°F , 12°C
Humidity: 42%
Barometer: 30.01 inHg , 1016.3 hPa
Clouds: Partly cloudy
Visibility: 10 miles , 16 km
Cloud details: Partly cloudy 6000 ft
2015/08/04 19:35 KIDI 041935Z AUTO 31009G14KT 10SM SCT060 26/12 A3001 RMK A01
 
KPIT - Pittsburgh, Pennsylvania, USA
Distance from station: W 36mi, 57km
Updated: Tue, 04-Aug-2015 2:51pm EDT
Partly cloudy
Partly cloudy
 Wind from W
Wind: W 12 mph , 19 km/h
Temperature: 81°F , 27°C
Dew Point: 52°F , 11°C
Humidity: 37%
Barometer: 29.97 inHg , 1014.9 hPa
Clouds: Partly cloudy
Visibility: 10 miles , 16 km
Cloud details: Few Clouds 4700 ft
Partly cloudy 6000 ft
Partly cloudy 25000 ft
2015/08/04 18:51 KPIT 041851Z 28010KT 10SM FEW047 SCT060 SCT250 27/11 A2997 RMK AO2 SLP148 T02670111
KJST - Johnstown, Pennsylvania, USA
Distance from station: ESE 41mi, 66km
Updated: Tue, 04-Aug-2015 2:54pm EDT
Few Clouds
Few Clouds
 Wind from WSW
Wind: WSW 16 mph , 26 km/h, Gust: 22 mph , 35 km/h
Temperature: 75°F , 24°C
Dew Point: 52°F , 11°C
Humidity: 44%
Barometer: 30.01 inHg , 1016.3 hPa
Clouds: Few Clouds
Visibility: 10 miles , 16 km
Cloud details: Few Clouds 5500 ft
2015/08/04 18:54 KJST 041854Z AUTO 24014G19KT 10SM FEW055 24/11 A3001 RMK AO2 SLP147 T02440106
 
KAFJ - Washington, Pennsylvania, USA
Distance from station: WSW 42mi, 68km
Updated: Sun, 14-Jun-2015 9:55pm EDT
NOT Current
Nearby thunderstorm, Clear
Nearby thunderstorm, Clear
 Wind from ESE
Wind: ESE 3 mph , 6 km/h
Temperature: 73°F , 23°C
Dew Point: 72°F , 22°C
Humidity: 94%
Barometer: 30.04 inHg , 1017.3 hPa
Summary: Nearby Thunderstorm
Clouds: Clear
Visibility: 10 miles , 16 km
2015/06/15 01:55 KAFJ 150155Z AUTO 12003KT 10SM VCTS CLR 23/22 A3004 RMK AO1 LTG DSNT ALQDS TSB10 P0003
KBVI - Beaver Falls Arp, Pennsylvania, USA
Distance from station: WNW 48mi, 77km
Updated: Tue, 04-Aug-2015 2:47pm EDT
Partly cloudy
Partly cloudy
 Wind from SW
Wind: SW 7 mph , 11 km/h
Temperature: 81°F , 27°C
Heat Index: 81°F , 27°C
Dew Point: 55°F , 13°C
Humidity: 42%
Barometer: 29.98 inHg , 1015.2 hPa
Clouds: Partly cloudy
Visibility: 10 miles , 16 km
Cloud details: Partly cloudy 6000 ft
2015/08/04 18:47 KBVI 041847Z 22006KT 10SM SCT060 27/13 A2998